createdAt,value
2023-01-30T00:00:02.121Z,40.00
2023-01-30T00:02:35.257Z,44.85
2023-01-30T00:05:02.523Z,45.75
2023-01-30T00:07:31.132Z,45.40
2023-01-30T00:10:01.136Z,44.08
2023-01-30T00:12:37.367Z,44.30
2023-01-30T00:15:05.203Z,46.90
2023-01-30T00:17:32.384Z,44.15
2023-01-30T00:19:59.637Z,45.92
2023-01-30T00:22:26.878Z,41.10
2023-01-30T00:24:54.251Z,46.38
2023-01-30T00:27:21.628Z,39.67
2023-01-30T00:29:57.810Z,42.17
2023-01-30T00:32:30.969Z,47.95
2023-01-30T00:35:02.562Z,51.38
2023-01-30T00:37:29.703Z,49.15
2023-01-30T00:39:57.979Z,50.08
2023-01-30T00:42:45.668Z,48.63
2023-01-30T00:45:31.798Z,43.83
2023-01-30T00:48:01.684Z,43.78
2023-01-30T00:50:43.845Z,44.83
2023-01-30T00:53:13.624Z,43.95
2023-01-30T00:55:42.107Z,45.55
2023-01-30T00:58:10.006Z,48.40
2023-01-30T01:00:37.996Z,47.78
2023-01-30T01:03:05.534Z,49.03
2023-01-30T01:05:39.974Z,44.03
2023-01-30T01:08:07.412Z,50.42
2023-01-30T01:10:35.092Z,51.28
2023-01-30T01:13:02.271Z,47.45
2023-01-30T01:15:30.309Z,43.35
2023-01-30T01:17:59.784Z,44.53
2023-01-30T01:20:26.982Z,48.45
2023-01-30T01:22:57.951Z,50.35
2023-01-30T01:25:25.842Z,52.03
2023-01-30T01:27:53.941Z,53.47
2023-01-30T01:30:21.166Z,44.28
2023-01-30T01:32:50.884Z,42.30
2023-01-30T01:35:20.108Z,45.17
2023-01-30T01:37:47.418Z,44.50
2023-01-30T01:40:39.051Z,47.22
2023-01-30T01:45:51.989Z,50.25
2023-01-30T01:48:25.365Z,46.47
2023-01-30T01:51:03.675Z,46.25
2023-01-30T01:53:36.517Z,43.40
2023-01-30T01:56:06.085Z,44.67
2023-01-30T01:58:41.569Z,52.38
2023-01-30T02:01:09.024Z,52.72
2023-01-30T02:03:42.000Z,49.67
2023-01-30T02:06:10.296Z,46.35
2023-01-30T02:08:41.243Z,46.78
2023-01-30T02:11:13.429Z,47.50
2023-01-30T02:13:40.609Z,44.63
2023-01-30T02:16:09.502Z,39.90
2023-01-30T02:18:41.534Z,42.60
2023-01-30T02:21:50.268Z,40.30
2023-01-30T02:24:34.703Z,42.13
2023-01-30T02:27:18.711Z,40.33
2023-01-30T02:30:08.604Z,36.45
2023-01-30T02:32:49.585Z,34.85
2023-01-30T02:35:37.223Z,34.65
2023-01-30T02:38:36.629Z,40.25
2023-01-30T02:41:56.855Z,35.45
2023-01-30T02:55:31.036Z,30.83
2023-01-30T02:58:09.139Z,27.90
2023-01-30T03:01:04.036Z,28.27
2023-01-30T03:03:43.744Z,25.40
2023-01-30T03:35:33.884Z,23.85
2023-01-30T03:38:44.688Z,20.45
2023-01-30T03:45:36.645Z,21.02
2023-01-30T03:48:04.193Z,16.73
2023-01-30T03:50:32.428Z,21.10
2023-01-30T03:53:02.761Z,23.55
2023-01-30T03:55:29.995Z,18.02
2023-01-30T03:57:58.016Z,18.90
2023-01-30T04:00:29.512Z,17.67
2023-01-30T04:02:58.938Z,17.98
2023-01-30T04:05:27.163Z,16.23
2023-01-30T04:08:04.396Z,14.25
2023-01-30T04:10:31.533Z,13.55
2023-01-30T04:13:01.266Z,18.58
2023-01-30T04:15:29.505Z,12.48
2023-01-30T04:18:22.560Z,15.13
2023-01-30T04:21:01.816Z,16.65
2023-01-30T04:23:34.961Z,17.13
2023-01-30T04:26:04.495Z,15.05
2023-01-30T04:28:34.601Z,14.93
2023-01-30T04:31:02.243Z,17.10
2023-01-30T04:33:52.616Z,12.98
2023-01-30T04:36:20.146Z,19.63
2023-01-30T04:38:47.572Z,15.93
2023-01-30T04:41:17.873Z,18.17
2023-01-30T04:43:45.512Z,23.92
2023-01-30T04:46:36.580Z,18.83
2023-01-30T04:54:53.018Z,17.70
2023-01-30T04:57:44.540Z,22.00
2023-01-30T05:00:12.456Z,19.73
2023-01-30T05:02:51.287Z,15.88
2023-01-30T05:05:19.104Z,13.30
2023-01-30T05:07:46.596Z,14.75
2023-01-30T05:10:17.021Z,15.52
2023-01-30T05:12:47.454Z,15.90
2023-01-30T05:15:18.100Z,12.93
2023-01-30T05:17:45.947Z,13.85
2023-01-30T05:20:14.290Z,16.25
2023-01-30T05:22:41.585Z,17.52
2023-01-30T05:25:11.703Z,13.13
2023-01-30T05:27:39.157Z,15.65
2023-01-30T05:30:07.028Z,16.08
2023-01-30T05:32:35.112Z,12.48
2023-01-30T05:35:03.723Z,9.98
2023-01-30T05:37:33.563Z,15.25
2023-01-30T05:40:06.187Z,10.13
2023-01-30T05:42:35.972Z,9.98
2023-01-30T05:45:06.103Z,10.00
2023-01-30T05:47:35.751Z,8.20
2023-01-30T05:50:03.066Z,10.30
2023-01-30T05:52:32.040Z,14.20
2023-01-30T05:55:02.270Z,7.28
2023-01-30T05:57:30.862Z,8.68
2023-01-30T05:59:58.492Z,7.72
2023-01-30T06:02:37.857Z,7.20
2023-01-30T06:05:18.196Z,6.25
2023-01-30T06:07:51.832Z,10.27
2023-01-30T06:10:49.704Z,8.05
2023-01-30T06:13:48.057Z,6.38
2023-01-30T06:16:17.676Z,8.80
2023-01-30T06:24:13.790Z,6.90
2023-01-30T06:34:57.021Z,8.40
2023-01-30T06:37:31.932Z,7.10
2023-01-30T06:40:11.990Z,7.00
2023-01-30T11:25:09.593Z,15.32
2023-01-30T11:27:49.007Z,10.10
2023-01-30T11:31:05.408Z,9.68
2023-01-30T11:33:36.296Z,10.45
2023-01-30T11:36:26.200Z,10.40
2023-01-30T11:39:04.020Z,10.45
2023-01-30T11:50:36.500Z,11.23
2023-01-30T12:05:51.569Z,9.98
2023-01-30T12:08:40.587Z,12.68
2023-01-30T12:11:50.268Z,8.05
2023-01-30T12:37:07.731Z,11.27
2023-01-30T12:52:42.388Z,12.20
2023-01-30T13:05:07.724Z,7.22
2023-01-30T13:11:46.524Z,9.77
2023-01-30T13:14:25.679Z,8.52
2023-01-30T13:41:08.556Z,12.32
2023-01-30T13:56:42.619Z,9.98
2023-01-30T13:59:47.439Z,8.73
2023-01-30T14:02:34.991Z,9.40
2023-01-30T14:05:05.855Z,14.70
2023-01-30T14:08:12.289Z,9.52
2023-01-30T14:10:39.757Z,9.27
2023-01-30T14:13:19.716Z,9.90
2023-01-30T14:16:03.521Z,16.73
2023-01-30T14:18:53.361Z,11.10
2023-01-30T14:21:30.119Z,8.10
2023-01-30T14:24:06.100Z,12.90
2023-01-30T14:27:10.804Z,15.82
2023-01-30T14:30:11.975Z,12.50
2023-01-30T14:32:54.625Z,9.82
2023-01-30T15:13:54.277Z,12.27
2023-01-30T15:17:20.928Z,8.45
2023-01-30T15:20:28.103Z,10.27
2023-01-30T15:23:41.531Z,10.27
2023-01-30T15:30:43.716Z,10.95
2023-01-30T15:33:30.821Z,13.13
2023-01-30T15:39:55.865Z,11.82
2023-01-30T16:01:38.641Z,10.18
2023-01-30T16:04:25.692Z,9.05
2023-01-30T16:06:55.738Z,8.55
2023-01-30T16:12:28.432Z,7.82
2023-01-30T16:15:12.054Z,8.80
2023-01-30T16:18:00.244Z,8.02
2023-01-30T16:21:02.017Z,9.60
2023-01-30T16:27:40.853Z,12.60
2023-01-30T16:30:10.219Z,11.85
2023-01-30T16:32:38.907Z,9.35
2023-01-30T16:35:36.419Z,11.82
2023-01-30T16:38:29.282Z,11.23
2023-01-30T16:41:06.125Z,12.07
2023-01-30T16:44:12.433Z,9.50
2023-01-30T16:46:42.071Z,7.93
2023-01-30T16:49:19.218Z,10.85
2023-01-30T16:51:47.798Z,7.65
2023-01-30T16:54:35.608Z,5.95
2023-01-30T16:57:03.741Z,7.20
2023-01-30T16:59:43.609Z,7.32
2023-01-30T17:02:42.740Z,10.23
2023-01-30T17:05:22.435Z,8.77
2023-01-30T17:09:05.321Z,7.93
2023-01-30T17:11:35.462Z,8.25
2023-01-30T17:14:14.984Z,11.33
2023-01-30T17:16:43.213Z,8.18
2023-01-30T17:19:10.346Z,10.93
2023-01-30T17:21:51.473Z,11.05
2023-01-30T17:24:22.019Z,9.27
2023-01-30T17:26:59.347Z,7.40
2023-01-30T17:30:14.623Z,4.65
2023-01-30T17:32:41.938Z,7.80
2023-01-30T17:35:12.624Z,7.55
2023-01-30T17:37:39.915Z,8.57
2023-01-30T17:40:34.009Z,17.70
2023-01-30T17:43:01.595Z,9.48
2023-01-30T17:45:31.317Z,9.52
2023-01-30T17:47:59.580Z,10.73
2023-01-30T17:50:28.780Z,15.00
2023-01-30T17:52:56.247Z,6.88
2023-01-30T17:55:23.908Z,8.15
2023-01-30T17:57:54.321Z,8.85
2023-01-30T18:00:33.061Z,5.97
2023-01-30T18:03:07.695Z,6.90
2023-01-30T18:05:36.327Z,9.15
2023-01-30T18:08:03.909Z,4.95
2023-01-30T18:10:31.020Z,13.32
2023-01-30T18:13:01.278Z,13.90
2023-01-30T18:15:30.796Z,11.77
2023-01-30T18:19:08.804Z,11.38
2023-01-30T18:43:10.294Z,10.55
2023-01-30T18:45:45.031Z,10.38
2023-01-30T18:58:32.030Z,11.35
2023-01-30T19:01:29.958Z,15.18
2023-01-30T19:03:59.242Z,9.60
2023-01-30T19:06:29.836Z,11.65
2023-01-30T19:09:07.744Z,11.02
2023-01-30T19:14:44.279Z,8.50
2023-01-30T19:17:15.230Z,10.73
2023-01-30T19:19:47.456Z,5.90
2023-01-30T19:25:00.286Z,9.60
2023-01-30T19:28:57.078Z,8.23
2023-01-30T19:31:52.400Z,7.65
2023-01-30T19:58:25.013Z,13.75
2023-01-30T20:03:44.880Z,10.55
2023-01-30T20:10:44.562Z,14.60
2023-01-30T20:40:22.266Z,4.72
2023-01-30T20:48:16.700Z,9.00
2023-01-30T20:51:23.965Z,6.32
2023-01-30T20:54:01.000Z,5.93
2023-01-30T20:56:44.622Z,6.40
2023-01-30T21:02:53.192Z,6.68
2023-01-30T21:05:20.603Z,11.60
2023-01-30T21:07:48.059Z,7.32
2023-01-30T21:10:22.614Z,5.72
2023-01-30T21:13:04.795Z,6.95
2023-01-30T21:15:31.928Z,6.40
2023-01-30T21:17:59.247Z,8.65
2023-01-30T21:20:26.290Z,8.88
2023-01-30T21:23:02.408Z,8.52
2023-01-30T21:25:39.637Z,8.00
2023-01-30T21:28:07.951Z,6.65
2023-01-30T21:32:30.651Z,8.52
2023-01-30T21:34:36.860Z,4.80
2023-01-30T21:37:25.773Z,11.60
2023-01-30T21:40:20.134Z,5.57
2023-01-30T21:43:05.664Z,5.53
2023-01-30T21:45:35.383Z,9.15
2023-01-30T21:48:02.523Z,10.27
2023-01-30T21:50:33.485Z,9.15
2023-01-30T21:53:01.911Z,7.43
2023-01-30T21:55:31.619Z,6.88
2023-01-30T21:57:59.085Z,8.93
2023-01-30T22:00:26.159Z,5.25
2023-01-30T22:02:53.214Z,4.63
2023-01-30T22:05:20.549Z,7.47
2023-01-30T22:07:47.949Z,9.35
2023-01-30T22:10:15.083Z,6.75
2023-01-30T22:12:52.623Z,6.20
2023-01-30T22:15:21.961Z,8.35
2023-01-30T22:17:49.928Z,7.97
2023-01-30T22:20:17.248Z,11.48
2023-01-30T22:22:44.348Z,11.52
2023-01-30T22:25:18.004Z,10.35
2023-01-30T22:27:45.618Z,5.65
2023-01-30T22:30:19.629Z,9.40
2023-01-30T22:32:52.817Z,5.25
2023-01-30T22:35:20.439Z,12.75
2023-01-30T22:37:47.687Z,7.63
2023-01-30T22:40:58.301Z,6.25
2023-01-30T22:43:29.943Z,4.22
2023-01-30T22:46:02.633Z,5.25
2023-01-30T22:48:30.797Z,4.53
2023-01-30T22:51:18.728Z,7.35
2023-01-30T22:53:50.956Z,7.95
2023-01-30T22:56:21.058Z,7.18
2023-01-30T22:58:49.173Z,6.93
2023-01-30T23:01:35.050Z,5.03
2023-01-30T23:04:57.009Z,7.05
2023-01-30T23:07:44.639Z,7.30
2023-01-30T23:10:14.496Z,8.38
2023-01-30T23:13:00.101Z,4.25
2023-01-30T23:15:37.105Z,8.18
2023-01-30T23:18:22.913Z,5.60
2023-01-30T23:21:00.281Z,5.88
2023-01-30T23:23:29.859Z,6.05
2023-01-30T23:25:56.952Z,7.70
2023-01-30T23:28:44.573Z,5.47
2023-01-30T23:31:44.221Z,5.53
2023-01-30T23:34:17.169Z,5.38
2023-01-30T23:36:47.924Z,6.40
2023-01-30T23:39:15.376Z,3.72
2023-01-30T23:41:43.298Z,2.72
2023-01-30T23:44:10.872Z,4.00
2023-01-30T23:46:42.752Z,4.78
2023-01-30T23:49:15.016Z,4.68
2023-01-30T23:51:45.988Z,2.58
2023-01-30T23:54:19.885Z,2.08
2023-01-30T23:56:56.139Z,2.67
2023-01-30T23:59:26.590Z,6.18
